Time;durP1;ratioP1;P1;durP2;ratioP2;P2;SDS_P1;SDS_P2;PMS_P1;PMS_P2;Temp;Humidity;BMP_temperature;BMP_pressure;BME280_temperature;BME280_humidity;BME280_pressure;Samples;Min_cycle;Max_cycle;Signal;HPM_P1;HPM_P2
2022/07/06 00:02:11;;;;;;;4.15;3.38;;;18.00;99.90;;;;;;5239575;28;20101;-61
2022/07/06 00:04:49;;;;;;;3.60;3.22;;;18.00;99.90;;;;;;5211217;28;20058;-61
2022/07/06 00:07:22;;;;;;;3.38;2.97;;;18.10;99.90;;;;;;5222545;28;20028;-63
2022/07/06 00:09:58;;;;;;;3.40;3.10;;;18.20;99.90;;;;;;5239395;28;20211;-62
2022/07/06 00:12:31;;;;;;;3.60;3.10;;;18.50;99.90;;;;;;5239143;28;20020;-61
2022/07/06 00:15:03;;;;;;;3.33;3.03;;;18.70;99.90;;;;;;5221135;28;20035;-63
2022/07/06 00:17:34;;;;;;;3.20;2.90;;;18.80;99.90;;;;;;5220980;28;20035;-62
2022/07/06 00:20:08;;;;;;;3.20;2.90;;;18.70;99.90;;;;;;5237832;28;20240;-62
2022/07/06 00:22:42;;;;;;;3.40;3.10;;;18.70;99.90;;;;;;5238364;28;20038;-62
2022/07/06 00:25:16;;;;;;;5.80;3.22;;;18.70;99.90;;;;;;5239371;28;20032;-62
2022/07/06 00:27:47;;;;;;;3.50;3.20;;;18.70;99.90;;;;;;5236076;28;20031;-62
2022/07/06 00:30:18;;;;;;;3.55;3.25;;;18.70;99.90;;;;;;5211460;28;20039;-62
2022/07/06 00:32:52;;;;;;;3.53;3.20;;;18.70;99.90;;;;;;5199988;28;20039;-62
2022/07/06 00:35:25;;;;;;;3.40;3.10;;;18.80;99.90;;;;;;5251534;28;20034;-61
2022/07/06 00:37:56;;;;;;;3.35;3.08;;;18.80;99.90;;;;;;5203831;28;20037;-62
2022/07/06 00:40:29;;;;;;;4.10;3.33;;;18.80;99.90;;;;;;5220447;28;20016;-61
2022/07/06 00:43:00;;;;;;;3.47;3.17;;;19.00;99.90;;;;;;5226615;28;20266;-62
2022/07/06 00:45:34;;;;;;;3.88;3.50;;;19.20;99.90;;;;;;5240848;28;20034;-61
2022/07/06 00:48:08;;;;;;;3.28;3.08;;;19.30;99.90;;;;;;5241223;28;20032;-61
2022/07/06 00:50:42;;;;;;;3.38;3.08;;;19.40;99.90;;;;;;5236220;28;20192;-61
2022/07/06 00:53:18;;;;;;;3.53;3.22;;;19.40;99.90;;;;;;5220554;28;20020;-62
2022/07/06 00:55:53;;;;;;;3.42;3.13;;;19.30;99.90;;;;;;5202579;28;20328;-62
2022/07/06 00:58:27;;;;;;;3.60;3.30;;;19.40;99.90;;;;;;5237051;28;20036;-62
2022/07/06 01:00:58;;;;;;;3.35;3.05;;;19.30;99.90;;;;;;5204015;28;20024;-62
2022/07/06 01:03:31;;;;;;;2.67;2.47;;;19.20;99.90;;;;;;5220577;28;20291;-63
2022/07/06 01:06:02;;;;;;;4.05;3.40;;;19.20;99.90;;;;;;5217953;28;20265;-62
2022/07/06 01:08:34;;;;;;;3.95;3.33;;;19.20;99.90;;;;;;5219733;28;20016;-63
2022/07/06 01:11:05;;;;;;;3.40;3.10;;;19.10;99.90;;;;;;5238484;28;20036;-62
2022/07/06 01:13:39;;;;;;;3.55;3.10;;;19.10;99.90;;;;;;5254815;28;20224;-62
2022/07/06 01:16:14;;;;;;;3.55;3.25;;;19.10;99.90;;;;;;5257031;28;20183;-64
2022/07/06 01:18:45;;;;;;;;;;;19.00;99.90;;;;;;5240920;28;20122;-61
2022/07/06 01:21:16;;;;;;;3.30;2.97;;;18.90;99.90;;;;;;5247958;28;19900;-63
2022/07/06 01:23:48;;;;;;;3.40;3.10;;;18.90;99.90;;;;;;5219466;28;20031;-63
2022/07/06 01:26:25;;;;;;;3.50;3.20;;;18.90;99.90;;;;;;5218595;28;20038;-63
2022/07/06 01:28:57;;;;;;;3.45;3.15;;;19.00;99.90;;;;;;5239928;28;20020;-63
2022/07/06 01:31:28;;;;;;;3.33;3.03;;;19.00;99.90;;;;;;5222006;28;20032;-63
2022/07/06 01:34:00;;;;;;;2.92;2.72;;;18.80;99.90;;;;;;5240386;28;20217;-63
2022/07/06 01:36:35;;;;;;;3.88;3.17;;;18.70;99.90;;;;;;5240887;28;20032;-62
2022/07/06 01:39:10;;;;;;;3.50;3.15;;;18.70;99.90;;;;;;5223408;28;20028;-63
2022/07/06 01:41:44;;;;;;;3.75;3.45;;;18.80;99.90;;;;;;5240216;28;20119;-62
2022/07/06 01:44:17;;;;;;;3.67;2.78;;;18.90;99.90;;;;;;5222720;28;20239;-63
2022/07/06 01:46:50;;;;;;;3.10;2.80;;;19.00;99.90;;;;;;5238820;28;20020;-63
2022/07/06 01:49:21;;;;;;;2.70;2.40;;;19.10;99.90;;;;;;5240876;28;20208;-63
2022/07/06 01:52:00;;;;;;;2.78;2.58;;;19.20;99.90;;;;;;5237154;28;20310;-63
2022/07/06 01:54:31;;;;;;;3.17;2.65;;;19.30;99.90;;;;;;5201313;28;20274;-62
2022/07/06 01:57:06;;;;;;;2.70;2.50;;;19.30;99.90;;;;;;5220710;28;20024;-63
2022/07/06 01:59:40;;;;;;;2.40;2.20;;;19.40;99.90;;;;;;5186474;28;20325;-63
2022/07/06 02:02:15;;;;;;;2.42;2.22;;;19.40;99.90;;;;;;5231372;28;20036;-63
2022/07/06 02:04:46;;;;;;;2.25;2.05;;;19.50;99.90;;;;;;5230761;28;20228;-63
2022/07/06 02:07:17;;;;;;;2.70;2.50;;;19.40;99.90;;;;;;5229185;28;20414;-62
2022/07/06 02:09:53;;;;;;;2.92;2.50;;;19.40;99.90;;;;;;5240217;28;20032;-63
2022/07/06 02:12:29;;;;;;;1.90;1.80;;;19.50;99.90;;;;;;5239874;28;20024;-63
2022/07/06 02:15:00;;;;;;;2.13;2.00;;;19.50;99.90;;;;;;5239955;28;20032;-63
2022/07/06 02:17:34;;;;;;;1.90;1.80;;;19.50;99.90;;;;;;5240516;28;20035;-62
2022/07/06 02:20:06;;;;;;;1.87;1.73;;;19.40;99.90;;;;;;5238574;28;20206;-63
2022/07/06 02:22:37;;;;;;;2.40;2.20;;;19.40;99.90;;;;;;5207709;28;20269;-63
2022/07/06 02:25:09;;;;;;;2.58;2.08;;;19.30;99.90;;;;;;5220005;28;20016;-63
2022/07/06 02:27:42;;;;;;;2.67;2.47;;;19.30;99.90;;;;;;5238206;28;20027;-62
2022/07/06 02:30:16;;;;;;;2.60;2.40;;;19.40;99.90;;;;;;5239690;28;20293;-63
2022/07/06 02:32:47;;;;;;;2.33;2.20;;;19.30;99.90;;;;;;5204423;28;20393;-63
2022/07/06 02:35:20;;;;;;;2.60;2.40;;;19.20;99.90;;;;;;5221505;28;20029;-63
2022/07/06 02:37:53;;;;;;;3.47;2.30;;;19.10;99.90;;;;;;5239231;28;20024;-63
2022/07/06 02:40:24;;;;;;;2.55;2.35;;;19.00;99.90;;;;;;5221237;28;20250;-63
2022/07/06 02:42:58;;;;;;;2.75;2.15;;;18.90;99.90;;;;;;5235411;28;20314;-63
2022/07/06 02:45:32;;;;;;;2.35;2.15;;;18.80;99.90;;;;;;5261150;28;20023;-63
2022/07/06 02:48:07;;;;;;;2.30;2.10;;;18.70;99.90;;;;;;5242979;28;20046;-63
2022/07/06 02:50:38;;;;;;;2.03;1.88;;;18.60;99.90;;;;;;5222279;28;20036;-63
2022/07/06 02:53:09;;;;;;;3.85;2.25;;;18.60;99.90;;;;;;5243087;28;20050;-63
2022/07/06 02:55:43;;;;;;;2.60;2.17;;;18.60;99.90;;;;;;5239186;28;20324;-62
2022/07/06 02:58:19;;;;;;;2.60;2.40;;;18.50;99.90;;;;;;5238940;28;20339;-63
2022/07/06 03:00:51;;;;;;;2.78;2.58;;;18.50;99.90;;;;;;5240892;28;20025;-63
2022/07/06 03:03:25;;;;;;;2.58;2.35;;;18.20;99.90;;;;;;5239457;28;20039;-63
2022/07/06 03:05:56;;;;;;;3.03;2.33;;;18.10;99.90;;;;;;5212756;28;20276;-63
2022/07/06 03:08:27;;;;;;;3.75;2.60;;;18.00;99.90;;;;;;5242633;28;20034;-62
2022/07/06 03:11:04;;;;;;;2.50;2.30;;;17.90;99.90;;;;;;5253504;28;20028;-62
2022/07/06 03:13:36;;;;;;;2.95;2.72;;;17.90;99.90;;;;;;5206580;28;20246;-63
2022/07/06 03:16:13;;;;;;;2.90;2.70;;;17.80;99.90;;;;;;5220675;28;20169;-63
2022/07/06 03:18:44;;;;;;;3.15;2.88;;;17.60;99.90;;;;;;5219570;28;20338;-62
2022/07/06 03:21:15;;;;;;;2.58;2.38;;;17.60;99.90;;;;;;5220372;28;20130;-62
2022/07/06 03:23:48;;;;;;;2.85;2.47;;;17.50;99.90;;;;;;5220125;28;20033;-62
2022/07/06 03:26:25;;;;;;;3.70;2.70;;;17.40;99.90;;;;;;5220255;28;20122;-63
2022/07/06 03:28:58;;;;;;;2.95;2.70;;;17.40;99.90;;;;;;5220135;28;20030;-62
2022/07/06 03:31:35;;;;;;;4.65;2.90;;;17.40;99.90;;;;;;5237585;28;20031;-62
2022/07/06 03:34:06;;;;;;;3.60;2.72;;;17.50;99.90;;;;;;5238713;28;20340;-63
2022/07/06 03:36:38;;;;;;;3.60;2.78;;;17.50;99.90;;;;;;5220067;28;20047;-62
2022/07/06 03:39:10;;;;;;;3.20;2.38;;;17.70;99.90;;;;;;5238109;28;20024;-62
2022/07/06 03:41:47;;;;;;;5.22;2.67;;;17.80;99.90;;;;;;5221139;28;20374;-63
2022/07/06 03:44:18;;;;;;;2.20;2.00;;;17.90;99.90;;;;;;5237736;28;20032;-62
2022/07/06 03:46:50;;;;;;;2.35;2.15;;;18.00;99.90;;;;;;5220136;28;20020;-63
2022/07/06 03:49:24;;;;;;;2.95;2.38;;;18.00;99.90;;;;;;5238588;28;20339;-62
2022/07/06 03:51:58;;;;;;;2.58;2.30;;;18.20;99.90;;;;;;5220091;28;20028;-62
2022/07/06 03:54:32;;;;;;;2.15;1.92;;;18.40;99.90;;;;;;5219811;28;20024;-62
2022/07/06 03:57:06;;;;;;;1.63;1.52;;;18.50;99.90;;;;;;5237487;28;20037;-63
2022/07/06 03:59:37;;;;;;;2.83;2.28;;;18.60;99.90;;;;;;5238306;28;20020;-63
2022/07/06 04:02:10;;;;;;;2.28;2.08;;;18.60;99.90;;;;;;5220755;28;20194;-63
2022/07/06 04:04:46;;;;;;;4.60;2.17;;;18.70;99.90;;;;;;5228074;28;20229;-62
2022/07/06 04:07:20;;;;;;;2.08;1.98;;;18.80;99.90;;;;;;5237017;28;20040;-63
2022/07/06 04:09:51;;;;;;;2.20;2.00;;;18.90;99.90;;;;;;5219717;28;20217;-63
2022/07/06 04:12:25;;;;;;;1.67;1.58;;;19.00;99.90;;;;;;5238087;28;20031;-64
2022/07/06 04:14:59;;;;;;;1.85;1.75;;;19.20;99.90;;;;;;5236008;28;20043;-63
2022/07/06 04:20:21;;;;;;;2.17;1.95;;;19.30;99.90;;;;;;5219308;28;20317;-64
2022/07/06 04:22:55;;;;;;;2.53;2.33;;;19.40;99.90;;;;;;5237945;28;20333;-64
2022/07/06 04:25:26;;;;;;;2.20;2.00;;;19.50;99.90;;;;;;5219873;28;20066;-63
2022/07/06 04:27:58;;;;;;;3.15;2.03;;;19.60;99.90;;;;;;5227945;28;20031;-63
2022/07/06 04:30:34;;;;;;;1.90;1.75;;;19.80;99.90;;;;;;5241312;28;20050;-63
2022/07/06 04:33:07;;;;;;;1.70;1.60;;;20.00;99.90;;;;;;5258970;28;20038;-63
2022/07/06 04:35:38;;;;;;;1.50;1.40;;;20.20;99.90;;;;;;5252521;28;20317;-63
2022/07/06 04:38:12;;;;;;;1.85;1.75;;;20.40;99.90;;;;;;5237588;28;20031;-62
2022/07/06 04:40:46;;;;;;;1.70;1.60;;;20.60;99.90;;;;;;5251785;28;20024;-64
2022/07/06 04:43:17;;;;;;;1.67;1.57;;;20.90;99.90;;;;;;5246783;28;20233;-63
2022/07/06 04:45:50;;;;;;;2.20;2.00;;;21.10;99.90;;;;;;5236583;28;20228;-63
2022/07/06 04:48:22;;;;;;;3.72;1.80;;;21.20;99.90;;;;;;5236436;28;20032;-62
2022/07/06 04:50:53;;;;;;;1.35;1.25;;;21.40;99.90;;;;;;5238197;28;20024;-63
2022/07/06 04:53:26;;;;;;;2.05;1.33;;;21.40;99.90;;;;;;5242516;28;20213;-64
2022/07/06 04:56:00;;;;;;;1.75;1.65;;;21.30;99.90;;;;;;5236042;28;20036;-62
2022/07/06 04:58:31;;;;;;;1.67;1.58;;;21.30;99.90;;;;;;5238715;28;20020;-61
2022/07/06 05:01:08;;;;;;;1.65;1.40;;;21.40;99.90;;;;;;5231607;28;20157;-62
2022/07/06 05:03:41;;;;;;;1.77;1.52;;;21.40;99.90;;;;;;5237468;28;20206;-64
2022/07/06 05:06:13;;;;;;;3.77;1.83;;;21.40;99.90;;;;;;5214906;28;20318;-62
2022/07/06 05:08:48;;;;;;;1.75;1.50;;;21.30;99.90;;;;;;5236272;28;20257;-63
2022/07/06 05:11:19;;;;;;;2.47;1.30;;;21.20;99.90;;;;;;5235959;28;20024;-62
2022/07/06 05:13:54;;;;;;;1.50;1.40;;;21.20;99.90;;;;;;5222750;28;20433;-62
2022/07/06 05:16:25;;;;;;;1.42;1.33;;;21.30;99.90;;;;;;5221096;28;20361;-62
2022/07/06 05:18:59;;;;;;;1.50;1.40;;;21.20;99.90;;;;;;5236321;28;20207;-62
2022/07/06 05:21:30;;;;;;;1.60;1.50;;;21.40;99.90;;;;;;5201441;28;20305;-62
2022/07/06 05:24:06;;;;;;;3.08;1.80;;;21.30;99.90;;;;;;5237033;28;20331;-62
2022/07/06 05:26:37;;;;;;;1.35;1.25;;;21.20;99.90;;;;;;5218538;28;20046;-62
2022/07/06 05:29:11;;;;;;;5.00;1.35;;;21.20;99.90;;;;;;5219452;28;20031;-62
2022/07/06 05:31:47;;;;;;;1.60;1.50;;;21.30;99.90;;;;;;5237229;28;20024;-62
2022/07/06 05:34:18;;;;;;;1.33;1.23;;;21.50;99.90;;;;;;5220387;28;20083;-62
2022/07/06 05:36:49;;;;;;;1.58;1.48;;;21.60;99.90;;;;;;5237083;28;20225;-62
2022/07/06 05:39:22;;;;;;;1.55;1.40;;;21.80;99.90;;;;;;5202086;28;20343;-64
2022/07/06 05:41:55;;;;;;;1.38;1.27;;;22.00;99.90;;;;;;5218477;28;20012;-63
2022/07/06 05:44:29;;;;;;;1.38;1.27;;;22.30;99.90;;;;;;5236819;28;20295;-63
2022/07/06 05:50:12;;;;;;;2.95;1.23;;;22.70;99.90;;;;;;5193574;28;20033;-62
2022/07/06 05:53:02;;;;;;;1.55;1.30;;;22.80;99.90;;;;;;5127950;28;20136;-64
2022/07/06 05:55:33;;;;;;;1.25;1.17;;;22.80;99.90;;;;;;5188177;28;20302;-63
2022/07/06 05:58:04;;;;;;;1.77;1.67;;;22.60;99.90;;;;;;5175501;28;20168;-64
2022/07/06 06:00:36;;;;;;;1.40;1.30;;;22.50;99.90;;;;;;5176078;28;20326;-63
2022/07/06 06:03:07;;;;;;;2.08;1.70;;;22.60;99.90;;;;;;5189144;28;20203;-63
2022/07/06 06:05:43;;;;;;;1.92;1.83;;;22.50;99.90;;;;;;5157817;28;20122;-63
2022/07/06 06:08:14;;;;;;;1.50;1.40;;;22.50;99.90;;;;;;5166269;28;20369;-63
2022/07/06 06:10:48;;;;;;;1.73;1.63;;;22.40;99.90;;;;;;5189220;28;20159;-63
2022/07/06 06:13:22;;;;;;;1.67;1.58;;;22.20;99.90;;;;;;5190533;28;20226;-63
2022/07/06 06:15:59;;;;;;;2.05;1.30;;;22.30;99.90;;;;;;5196682;28;20427;-63
2022/07/06 06:18:32;;;;;;;1.33;1.23;;;22.40;99.90;;;;;;5195958;28;20025;-63
2022/07/06 06:21:03;;;;;;;1.98;1.88;;;22.50;99.90;;;;;;5198330;28;20029;-63
2022/07/06 06:23:37;;;;;;;1.90;1.70;;;22.50;99.90;;;;;;5194958;28;20136;-63
2022/07/06 06:26:16;;;;;;;3.10;1.70;;;22.70;99.90;;;;;;5202045;28;20336;-63
2022/07/06 06:28:50;;;;;;;2.38;1.70;;;22.90;99.90;;;;;;5239482;28;20024;-62
2022/07/06 06:31:23;;;;;;;1.60;1.50;;;22.90;99.90;;;;;;5239816;28;20292;-62
2022/07/06 06:33:57;;;;;;;1.40;1.30;;;23.00;99.90;;;;;;5239510;28;20272;-62
2022/07/06 06:36:28;;;;;;;1.80;1.70;;;22.80;99.90;;;;;;5239194;28;20321;-62
2022/07/06 06:39:05;;;;;;;2.75;1.60;;;22.60;99.90;;;;;;5219975;28;20031;-62
2022/07/06 06:41:36;;;;;;;1.50;1.40;;;22.60;99.90;;;;;;5235724;28;20051;-63
2022/07/06 06:44:07;;;;;;;3.05;1.65;;;22.60;99.90;;;;;;5223764;28;20316;-62
2022/07/06 06:46:41;;;;;;;1.80;1.70;;;22.60;99.90;;;;;;5220855;28;20037;-64
2022/07/06 06:49:18;;;;;;;1.45;1.35;;;22.80;99.90;;;;;;5259315;28;20024;-62
2022/07/06 06:51:49;;;;;;;1.55;1.45;;;22.60;99.90;;;;;;5229189;28;20136;-61
2022/07/06 06:54:20;;;;;;;1.48;1.38;;;22.70;99.90;;;;;;5219536;28;20042;-65
2022/07/06 06:56:53;;;;;;;2.05;1.90;;;22.80;99.90;;;;;;5220299;28;20028;-62
2022/07/06 06:59:24;;;;;;;5.07;1.65;;;22.90;99.90;;;;;;5221825;28;20035;-62
2022/07/06 07:01:56;;;;;;;2.53;1.80;;;23.10;99.90;;;;;;5247300;28;20300;-62
2022/07/06 07:04:30;;;;;;;2.45;1.45;;;23.00;99.90;;;;;;5228912;28;20028;-62
2022/07/06 07:07:02;;;;;;;1.60;1.50;;;23.20;99.90;;;;;;5229165;28;20022;-63
2022/07/06 07:09:33;;;;;;;1.67;1.58;;;23.20;99.90;;;;;;5220105;28;20024;-62
2022/07/06 07:12:07;;;;;;;2.03;1.80;;;23.00;99.90;;;;;;5220831;28;20217;-63
2022/07/06 07:14:38;;;;;;;1.80;1.70;;;22.60;99.90;;;;;;5220543;28;20426;-63
2022/07/06 07:17:11;;;;;;;1.83;1.73;;;22.90;99.90;;;;;;5239239;28;20044;-63
2022/07/06 07:19:44;;;;;;;2.17;2.03;;;23.20;99.90;;;;;;5236460;28;20032;-62
2022/07/06 07:22:16;;;;;;;2.13;1.60;;;23.00;99.90;;;;;;5234415;28;20025;-62
2022/07/06 07:24:49;;;;;;;2.20;1.52;;;22.60;99.90;;;;;;5221395;28;20024;-63
2022/07/06 07:27:20;;;;;;;2.55;2.20;;;22.50;99.90;;;;;;5220378;28;20032;-62
2022/07/06 07:29:53;;;;;;;2.10;1.90;;;22.70;99.90;;;;;;5240639;28;20055;-61
2022/07/06 07:32:25;;;;;;;2.30;1.98;;;22.90;99.90;;;;;;5231511;28;20178;-62
2022/07/06 07:34:56;;;;;;;2.75;2.17;;;22.80;99.90;;;;;;5235387;28;20240;-62
2022/07/06 07:37:32;;;;;;;3.25;1.90;;;22.80;99.90;;;;;;5234217;28;20047;-62
2022/07/06 07:40:04;;;;;;;3.40;2.50;;;22.70;99.90;;;;;;5237852;28;20035;-62
2022/07/06 07:42:35;;;;;;;1.75;1.65;;;22.70;99.90;;;;;;5238359;28;20027;-62
2022/07/06 07:45:08;;;;;;;3.05;2.00;;;22.90;99.90;;;;;;5254043;28;20288;-61
2022/07/06 07:47:39;;;;;;;3.13;1.85;;;22.70;99.90;;;;;;5205654;28;20062;-62
2022/07/06 07:50:13;;;;;;;3.15;1.92;;;22.90;99.90;;;;;;5238179;28;20020;-62
2022/07/06 07:52:44;;;;;;;2.10;1.98;;;22.80;99.90;;;;;;5234583;28;20031;-62
2022/07/06 07:55:22;;;;;;;3.38;2.20;;;23.10;99.90;;;;;;5238011;28;20036;-62
2022/07/06 07:57:56;;;;;;;2.05;1.85;;;23.00;99.90;;;;;;5237622;28;20038;-62
2022/07/06 08:00:32;;;;;;;3.47;2.63;;;22.80;99.90;;;;;;5218043;28;20240;-62
2022/07/06 08:03:03;;;;;;;3.03;2.50;;;22.50;99.90;;;;;;5235599;28;20023;-62
2022/07/06 08:05:39;;;;;;;2.03;1.90;;;22.80;99.90;;;;;;5195426;28;20116;-62
2022/07/06 08:08:12;;;;;;;3.30;1.77;;;23.20;99.90;;;;;;5233546;28;20024;-62
2022/07/06 08:10:44;;;;;;;3.17;2.10;;;23.30;99.90;;;;;;5228429;28;20039;-62
2022/07/06 08:13:18;;;;;;;1.80;1.70;;;23.00;99.90;;;;;;5239062;28;20016;-62
2022/07/06 08:15:50;;;;;;;3.15;2.05;;;23.20;99.90;;;;;;5240777;28;20032;-63
2022/07/06 08:18:21;;;;;;;2.03;1.92;;;23.70;99.90;;;;;;5220160;28;20039;-64
2022/07/06 08:20:53;;;;;;;3.35;1.90;;;24.10;99.90;;;;;;5232406;28;20040;-63
2022/07/06 08:23:29;;;;;;;2.13;1.92;;;24.30;99.90;;;;;;5237296;28;20012;-62
2022/07/06 08:26:02;;;;;;;1.80;1.70;;;24.00;99.90;;;;;;5213380;28;20361;-62
2022/07/06 08:28:33;;;;;;;2.78;1.92;;;24.00;99.90;;;;;;5215003;28;20036;-63
2022/07/06 08:31:05;;;;;;;2.20;1.58;;;24.30;99.90;;;;;;5237270;28;20020;-63
2022/07/06 08:33:42;;;;;;;2.33;2.10;;;24.40;99.90;;;;;;5241487;28;20141;-63
2022/07/06 08:36:16;;;;;;;2.05;1.83;;;24.00;99.90;;;;;;5218149;28;20043;-63
2022/07/06 08:38:50;;;;;;;1.88;1.77;;;24.20;99.90;;;;;;5225097;28;20678;-63
2022/07/06 08:41:23;;;;;;;2.22;2.03;;;24.50;99.90;;;;;;5222345;28;20205;-62
2022/07/06 08:43:55;;;;;;;2.50;1.85;;;24.50;99.90;;;;;;5237652;28;20016;-61
2022/07/06 08:46:33;;;;;;;2.20;2.00;;;24.60;99.90;;;;;;5218107;28;20036;-62
2022/07/06 08:49:06;;;;;;;2.10;1.85;;;25.40;99.90;;;;;;5220316;28;20028;-63
2022/07/06 08:51:38;;;;;;;1.60;1.50;;;25.20;99.90;;;;;;5237943;28;20034;-63
2022/07/06 08:54:11;;;;;;;1.73;1.63;;;25.00;99.90;;;;;;5239481;28;20024;-62
2022/07/06 08:56:42;;;;;;;1.98;1.70;;;24.70;99.90;;;;;;5218130;28;20333;-62
2022/07/06 08:59:18;;;;;;;1.77;1.67;;;24.60;99.90;;;;;;5245699;28;20118;-62
2022/07/06 09:01:49;;;;;;;1.63;1.52;;;24.80;99.90;;;;;;5242636;28;20087;-64
2022/07/06 09:04:23;;;;;;;1.92;1.55;;;24.90;99.90;;;;;;5230026;28;20032;-63
2022/07/06 09:06:54;;;;;;;1.90;1.80;;;25.00;99.90;;;;;;5194523;28;20020;-63
2022/07/06 09:09:28;;;;;;;1.70;1.60;;;24.80;99.90;;;;;;5229353;28;20029;-63
2022/07/06 09:12:03;;;;;;;3.42;1.50;;;24.90;99.90;;;;;;5237469;28;20026;-63
2022/07/06 09:14:34;;;;;;;1.67;1.58;;;25.50;99.90;;;;;;5238228;28;20025;-63
2022/07/06 09:17:06;;;;;;;1.85;1.75;;;26.00;99.90;;;;;;5233071;28;20036;-63
2022/07/06 09:19:38;;;;;;;2.08;1.70;;;25.40;99.90;;;;;;5243632;28;20209;-62
2022/07/06 09:22:11;;;;;;;2.05;1.85;;;25.10;99.90;;;;;;5247965;28;20011;-63
2022/07/06 09:24:44;;;;;;;2.05;1.95;;;25.30;99.90;;;;;;5225630;28;20232;-62
2022/07/06 09:27:18;;;;;;;1.98;1.88;;;25.30;99.90;;;;;;5222054;28;20028;-61
2022/07/06 09:29:52;;;;;;;1.60;1.50;;;25.30;99.90;;;;;;5240903;28;20030;-62
2022/07/06 09:32:28;;;;;;;1.90;1.80;;;25.60;99.90;;;;;;5220753;28;20311;-62
2022/07/06 09:35:02;;;;;;;2.03;1.50;;;25.00;99.90;;;;;;5238389;28;20016;-63
2022/07/06 09:37:33;;;;;;;;;;;25.10;99.90;;;;;;5238503;28;20328;-62
2022/07/06 09:40:17;;;;;;;2.65;1.85;;;25.50;99.90;;;;;;5205575;28;20208;-61
2022/07/06 09:42:48;;;;;;;5.13;1.73;;;25.30;99.90;;;;;;5220882;28;20036;-62
2022/07/06 09:45:28;;;;;;;1.60;1.50;;;25.40;99.90;;;;;;5240391;28;20313;-62
2022/07/06 09:48:13;;;;;;;2.13;1.55;;;25.20;99.90;;;;;;5239863;28;20058;-61
2022/07/06 09:50:53;;;;;;;1.98;1.83;;;25.60;99.90;;;;;;5236893;28;20339;-62
2022/07/06 09:53:26;;;;;;;3.05;1.50;;;25.80;99.90;;;;;;5208051;28;20031;-63
2022/07/06 09:56:01;;;;;;;1.97;1.77;;;26.50;99.90;;;;;;5226530;28;20205;-63
2022/07/06 09:58:38;;;;;;;1.58;1.48;;;26.90;99.90;;;;;;5244523;28;20029;-62
2022/07/06 10:01:09;;;;;;;4.85;1.88;;;26.60;99.90;;;;;;5223899;28;20032;-62
2022/07/06 10:03:41;;;;;;;2.15;1.95;;;26.70;99.90;;;;;;5225405;28;20028;-61
2022/07/06 10:06:12;;;;;;;1.88;1.52;;;26.90;99.90;;;;;;5231792;28;20322;-62
2022/07/06 10:08:47;;;;;;;1.75;1.60;;;27.40;99.90;;;;;;5242283;28;20021;-63
2022/07/06 10:11:21;;;;;;;1.60;1.50;;;27.40;99.90;;;;;;5224675;28;20040;-63
2022/07/06 10:13:57;;;;;;;2.25;1.80;;;28.30;99.90;;;;;;5223608;28;20051;-62
2022/07/06 10:16:34;;;;;;;1.80;1.70;;;28.10;99.90;;;;;;5242924;28;20028;-62
2022/07/06 10:19:10;;;;;;;2.67;2.05;;;27.30;99.90;;;;;;5239460;28;20031;-63
2022/07/06 10:21:44;;;;;;;2.13;1.85;;;26.20;99.90;;;;;;5252944;28;20214;-62
2022/07/06 10:24:19;;;;;;;1.75;1.63;;;25.50;99.90;;;;;;5243818;28;20022;-61
2022/07/06 10:26:53;;;;;;;2.85;1.83;;;25.20;99.90;;;;;;5242645;28;20050;-62
2022/07/06 10:29:25;;;;;;;1.83;1.73;;;25.30;99.90;;;;;;5224461;28;20033;-62
2022/07/06 10:31:59;;;;;;;1.65;1.55;;;24.90;99.90;;;;;;5224063;28;20294;-61
2022/07/06 10:34:30;;;;;;;2.60;2.35;;;24.70;99.90;;;;;;5241928;28;20030;-64
2022/07/06 10:37:04;;;;;;;4.93;2.70;;;23.90;99.90;;;;;;5226236;28;20028;-68
2022/07/06 10:42:56;;;;;;;2.63;2.42;;;21.70;99.90;;;;;;5227657;28;20020;-66
2022/07/06 10:45:30;;;;;;;3.15;2.50;;;20.90;99.90;;;;;;5207264;28;20039;-65
2022/07/06 10:48:10;;;;;;;4.15;2.42;;;20.10;99.90;;;;;;5208847;28;20039;-62
2022/07/06 10:50:48;;;;;;;4.18;2.35;;;18.80;99.90;;;;;;5210564;28;20383;-62
2022/07/06 10:53:24;;;;;;;2.40;2.00;;;17.60;99.90;;;;;;5226260;28;20042;-62
2022/07/06 10:55:58;;;;;;;2.60;2.08;;;16.70;99.90;;;;;;5249333;28;20020;-65
2022/07/06 10:58:55;;;;;;;2.85;2.38;;;16.10;99.90;;;;;;5241609;28;20029;-68
2022/07/06 11:01:31;;;;;;;2.53;2.15;;;16.00;99.90;;;;;;5223774;28;20347;-63
2022/07/06 11:04:07;;;;;;;5.70;2.15;;;15.90;99.90;;;;;;5224638;28;20024;-69
2022/07/06 11:06:42;;;;;;;4.57;2.30;;;15.90;99.90;;;;;;5230230;28;20040;-67
2022/07/06 11:09:16;;;;;;;1.95;1.85;;;15.90;99.90;;;;;;5226587;28;20025;-72
2022/07/06 11:11:48;;;;;;;2.80;1.90;;;15.80;99.90;;;;;;5242935;28;20029;-66
2022/07/06 11:14:23;;;;;;;2.55;2.10;;;15.80;99.90;;;;;;5229333;28;20450;-67
2022/07/06 11:17:00;;;;;;;;;;;15.90;99.90;;;;;;5243232;28;20020;-63
2022/07/06 11:19:31;;;;;;;3.00;2.00;;;16.00;99.90;;;;;;5243354;28;20103;-64
2022/07/06 11:22:10;;;;;;;2.08;1.88;;;16.10;99.90;;;;;;5224269;28;20123;-63
2022/07/06 11:24:41;;;;;;;1.92;1.73;;;16.40;99.90;;;;;;5243081;28;20035;-62
2022/07/06 11:27:13;;;;;;;2.58;2.00;;;17.70;99.90;;;;;;5233126;28;20233;-63
2022/07/06 11:29:47;;;;;;;1.77;1.45;;;20.00;99.90;;;;;;5224937;28;20206;-62
2022/07/06 11:32:24;;;;;;;1.70;1.40;;;22.20;99.90;;;;;;5224914;28;20447;-63
2022/07/06 11:34:56;;;;;;;0.90;0.90;;;24.20;99.90;;;;;;5220863;28;20036;-68
2022/07/06 11:37:27;;;;;;;1.42;1.33;;;25.60;99.90;;;;;;5230123;28;20020;-63
2022/07/06 11:40:06;;;;;;;0.90;0.90;;;26.50;99.90;;;;;;5222163;28;20028;-62
2022/07/06 11:42:37;;;;;;;2.85;1.45;;;25.50;99.90;;;;;;5224575;28;20031;-63
2022/07/06 11:45:09;;;;;;;4.75;1.30;;;24.90;99.90;;;;;;5231646;28;20489;-62
2022/07/06 11:47:40;;;;;;;1.42;1.30;;;24.40;99.90;;;;;;5232657;28;20204;-63
2022/07/06 11:50:21;;;;;;;1.58;1.48;;;24.60;99.90;;;;;;5224680;28;20029;-63
2022/07/06 11:52:53;;;;;;;1.30;1.20;;;25.00;99.90;;;;;;5222991;28;20028;-63
2022/07/06 11:55:24;;;;;;;2.15;1.45;;;26.80;99.90;;;;;;5222268;28;20032;-62
2022/07/06 11:57:57;;;;;;;1.73;1.50;;;27.90;99.90;;;;;;5221562;28;20322;-62
2022/07/06 12:00:34;;;;;;;1.95;1.60;;;28.10;99.90;;;;;;5218561;28;20038;-63
2022/07/06 12:03:06;;;;;;;1.85;1.75;;;29.10;99.90;;;;;;5238634;28;20020;-63
2022/07/06 12:05:39;;;;;;;1.67;1.58;;;30.00;99.90;;;;;;5190997;28;20329;-62
2022/07/06 12:08:13;;;;;;;1.88;1.70;;;30.60;99.90;;;;;;5225070;28;20325;-63
2022/07/06 12:10:47;;;;;;;1.40;1.30;;;30.70;99.90;;;;;;5210174;28;20270;-62
2022/07/06 12:13:23;;;;;;;1.40;1.30;;;30.80;99.90;;;;;;5220869;28;20329;-63
2022/07/06 12:15:55;;;;;;;1.88;1.67;;;31.50;99.90;;;;;;5242442;28;20026;-63
2022/07/06 12:18:39;;;;;;;1.63;1.52;;;30.50;99.90;;;;;;5207750;28;20040;-63
2022/07/06 12:21:17;;;;;;;1.60;1.50;;;29.20;99.90;;;;;;5232340;28;20025;-63
2022/07/06 12:23:55;;;;;;;1.77;1.58;;;29.70;99.90;;;;;;5238006;28;20035;-63
2022/07/06 12:26:29;;;;;;;1.75;1.63;;;29.80;99.90;;;;;;5224434;28;20028;-64
2022/07/06 12:29:10;;;;;;;1.35;1.20;;;30.30;99.90;;;;;;5242835;28;20032;-65
2022/07/06 12:31:47;;;;;;;3.25;1.33;;;31.60;99.90;;;;;;5243966;28;20016;-64
2022/07/06 12:34:34;;;;;;;1.92;1.38;;;31.40;99.90;;;;;;5238961;28;20299;-64
2022/07/06 12:37:10;;;;;;;1.85;1.75;;;31.60;99.90;;;;;;5222876;28;20340;-63
2022/07/06 12:39:51;;;;;;;1.35;1.25;;;33.10;99.90;;;;;;5239483;28;20031;-65
2022/07/06 12:42:23;;;;;;;1.40;1.30;;;34.30;99.90;;;;;;5240980;28;20030;-64
2022/07/06 12:44:56;;;;;;;3.72;1.58;;;34.00;99.90;;;;;;5241944;28;20018;-64
2022/07/06 12:47:29;;;;;;;1.83;1.73;;;32.40;99.90;;;;;;5241432;28;20024;-64
2022/07/06 12:50:06;;;;;;;1.30;1.20;;;31.50;99.90;;;;;;5222115;28;20035;-63
2022/07/06 12:52:41;;;;;;;2.53;1.60;;;32.00;99.90;;;;;;5221853;28;20032;-63
2022/07/06 12:55:15;;;;;;;1.67;1.58;;;32.30;99.90;;;;;;5239728;28;20020;-64
2022/07/06 12:57:49;;;;;;;1.52;1.33;;;30.40;99.90;;;;;;5239991;28;20350;-63
2022/07/06 13:00:21;;;;;;;1.58;1.48;;;29.40;99.90;;;;;;5222722;28;20089;-63
2022/07/06 13:02:56;;;;;;;1.38;1.27;;;30.10;99.90;;;;;;5238836;28;20046;-63
2022/07/06 13:05:27;;;;;;;1.88;1.40;;;30.50;99.90;;;;;;5225398;28;20353;-64
2022/07/06 13:07:59;;;;;;;1.38;1.27;;;31.20;99.90;;;;;;5221738;28;20032;-63
2022/07/06 13:10:31;;;;;;;1.60;1.40;;;31.70;99.90;;;;;;5239149;28;20328;-62
2022/07/06 13:13:02;;;;;;;1.23;1.13;;;30.60;99.90;;;;;;5239112;28;20021;-63
2022/07/06 13:15:36;;;;;;;1.45;1.35;;;29.30;99.90;;;;;;5238079;28;20030;-63
2022/07/06 13:18:08;;;;;;;1.63;1.50;;;28.10;99.90;;;;;;5237570;28;20527;-64
2022/07/06 13:20:42;;;;;;;1.55;1.45;;;27.50;99.90;;;;;;5220357;28;20028;-65
2022/07/06 13:23:16;;;;;;;;;;;28.90;99.90;;;;;;5223291;28;20378;-64
2022/07/06 13:25:47;;;;;;;1.43;1.33;;;29.40;99.90;;;;;;5210877;28;19911;-62
2022/07/06 13:28:19;;;;;;;1.55;1.45;;;28.10;99.90;;;;;;5223560;28;20035;-62
2022/07/06 13:30:50;;;;;;;1.70;1.60;;;27.60;99.90;;;;;;5225321;28;20039;-62